AirNav   Air Wisconsin Up To $57,000 Bonus
 
 935 users online  

55NE Bergan Mercy Hospital Heliport
Omaha, Nebraska, USA

GOING TO OMAHA?


FAA INFORMATION EFFECTIVE 05 DECEMBER 2019

Location

FAA Identifier: 55NE
Lat/Long: 41-14-26.5400N 096-01-50.7800W
41-14.442333N 096-01.846333W
41.2407056,-96.0307722
(estimated)
Elevation: 1140 ft. / 347 m (estimated)
Variation: 06E (1985)
Time zone: UTC -6 (UTC -5 during Daylight Saving Time)
Zip code: 68124

Heliport Operations

Heliport use: Private use, MEDICAL.
Activation date: 06/1983
Control tower: no
ARTCC: MINNEAPOLIS CENTER
FSS: COLUMBUS FLIGHT SERVICE STATION
Attendance: CONTINUOUS
Wind indicator: lighted
Segmented circle: yes
Lights: FOR PERIMETER LGTS CALL 402-398-6060.

Heliport Communications

WX AWOS-3 at MLE (5 nm SW): 118.25 (402-895-6778)
WX ASOS at OMA (7 nm NE): PHONE 402-271-7515
WX AWOS-3 at BTA (11 nm N): 120.225 (402-426-0448)
WX AWOS-3 at CBF (12 nm E): 126.575 (712-323-1542)
WX AWOS-3 at PMV (18 nm S): 118.975 (402-298-7524)

Nearby radio navigation aids

VOR radial/distance  VOR name  Freq  Var
OVRr280/14.0OMAHA VORTAC116.3008E
SCBr123/34.7SCRIBNER VOR/DME111.0006E
LNKr050/37.4LINCOLN VORTAC116.1009E

 
NDB name  Hdg/Dist  Freq  Var  ID
PLATTSMOUTH338/18.632905EPMV .--. -- ...-
WAHOO084/25.640006EAHQ .- .... --.-
NEBRASKA CITY344/38.934705EAFK .- ..-. -.-

Heliport Services

Runway Information

Helipad H1

Dimensions: 30 x 30 ft. / 9 x 9 m
HELIPAD LCTD WITHIN A 80 X 80' LNDG/TKOF AREA.
Surface: concrete
Runway edge lights: PERI
Latitude: 41-14.442333N
Longitude: 096-01.846333W
Elevation: 1140.0 ft.
Traffic pattern: leftleft

Heliport Ownership and Management from official FAA records

Ownership: Privately-owned
Owner: BERGAN MERCY INC.
7500 MERCY ROAD
OMAHA, NE 68124
Phone 402-398-6060
Manager: BOB BURRITT
7500 MERCY ROAD
OMAHA, NE 68124
Phone 402-398-6078

Additional Remarks

A52-H1 3' FENCE SURROUNDS PAD; 50' PLINES 125' EAST.
APPROACH FROM 300 DEG (WNW).
FOR CD CTC OMAHA APCH AT 402-682-4395.

Instrument Procedures

There are no published instrument procedures at 55NE.

Some nearby airports with instrument procedures:

KMLE - Millard Airport (5 nm SW)
KOMA - Eppley Airfield (7 nm NE)
KOFF - Offutt Air Force Base (9 nm SE)
KBTA - Blair Municipal Airport (11 nm N)
KCBF - Council Bluffs Municipal Airport (12 nm E)
KPMV - Plattsmouth Municipal Airport (18 nm S)
 
Loc | Ops | Rwys | IFR | FBO | Links
Com | Nav | Svcs | Stats | Notes

Silverhawk Aviation, Inc.
AirBoss

 
Area around 55NE (Bergan Mercy Hospital Heliport)
 
Road maps at: MapQuest Bing Google
 
Aerial photo
No photo
 
Sectional chart

 
Airport distance calculator
Flying to Bergan Mercy Hospital Heliport? Find the distance to fly.

From to 55NE

Sunrise and sunset
Times for 12-Dec-2019
 Local
(UTC-6)
 Zulu
(UTC)
Morning civil twilight07:1013:10
Sunrise07:4113:41
Sunset16:5422:54
Evening civil twilight17:2523:25

Current date and time
Zulu (UTC)  13-Dec-2019 01:21:23
Local (UTC-6)  12-Dec-2019 19:21:23
 
METAR
KMLE 
5nm SW 
130055Z AUTO 35003KT 10SM CLR M01/M04 A3006 RMK AO2 T10131045
KOMA 
7nm NE 
130052Z 34008KT 10SM FEW012 SCT170 BKN210 M03/M05 A3007 RMK AO2 SLP191 T10281050
KOFF 
9nm SE 
130056Z 36006KT 10SM BKN160 BKN200 M01/M05 A3006 RMK AO2A SLP197 RVRNO $
KBTA 
11nm N 
130055Z AUTO 34007KT 10SM OVC009 M03/M05 A3004 RMK AO2 T10301046
KCBF 
12nm E 
130055Z AUTO 34009KT 10SM CLR M03/M03 A3003 RMK AO2
KPMV 
18nm S 
130055Z AUTO 35003KT 10SM CLR M02/M03 A3005 RMK AO2 T10201034
TAF
KOMA 
7nm NE 
121720Z 1218/1318 36011KT P6SM SCT020 BKN200 FM130100 32005KT P6SM FEW250
KOFF 
9nm SE 
122021Z 1220/1324 27010KT 9999 SCT020 OVC200 QNH3000INS BECMG 1304/1305 27005KT 9999 BKN200 QNH2995INS BECMG 1312/1313 18005KT 9999 BKN070 OVC200 620703 QNH2985INS TX07/1220Z TN00/1308Z
NOTAMs
Click for the latest NOTAMs
NOTAMs are issued by the DoD/FAA and will open in a separate window not controlled by AirNav.

 

 
 

Would you like to see your business listed on this page?

 If your business provides an interesting product or service to pilots, flight crews, aircraft, or users of the Bergan Mercy Hospital Heliport, you should consider listing it here.  To start the listing process, click on the button below
 
Add a business
 

Other Pages about Bergan Mercy Hospital Heliport

Update a link
 
Copyright © AirNav, LLC. All rights reserved. Privacy Policy  Contact